Terminal Aerodrome Forecast
Issued by NWS

Home | Current Version | Previous Version | Graphics & Text | Print | Product List | Glossary Off
Versions: 1 2 3 4 5 6 7 8 9 10 11 12 13 14 15 16

000
FTUS43 KICT 261133
TAFHUT
TAF
KHUT 261133Z 2612/2712 33013KT P6SM SCT050 OVC090
     FM261600 32020G30KT P6SM SCT050 BKN080
     FM270000 36007KT P6SM SKC=

USA.gov is the U.S. government's official web portal to all federal, state and local government web resources and services.